createdAt,value
2024-05-09T00:01:06.350Z,7.735596
2024-05-09T00:04:31.588Z,7.735596
2024-05-09T00:07:56.840Z,7.846375
2024-05-09T00:11:22.087Z,7.967224
2024-05-09T00:14:47.230Z,8.158569
2024-05-09T00:18:12.648Z,8.259277
2024-05-09T00:21:37.708Z,8.259277
2024-05-09T00:25:02.907Z,8.188782
2024-05-09T00:28:28.153Z,8.158569
2024-05-09T00:31:53.396Z,8.098145
2024-05-09T00:35:18.659Z,8.047791
2024-05-09T00:38:43.878Z,8.158569
2024-05-09T00:42:09.106Z,8.279419
2024-05-09T00:45:34.366Z,8.380127
2024-05-09T00:48:59.627Z,8.480835
2024-05-09T00:52:24.739Z,8.561401
2024-05-09T00:55:49.989Z,8.591614
2024-05-09T00:59:15.268Z,8.611755
2024-05-09T01:02:40.517Z,8.561401
2024-05-09T01:06:05.666Z,8.500977
2024-05-09T01:09:30.863Z,8.380127
2024-05-09T01:12:56.123Z,8.28949
2024-05-09T01:16:21.301Z,8.158569
2024-05-09T01:19:46.606Z,8.067932
2024-05-09T01:23:12.214Z,8.007507
2024-05-09T01:26:37.029Z,8.017578
2024-05-09T01:30:03.018Z,8.03772
2024-05-09T01:33:27.722Z,8.067932
2024-05-09T01:36:52.668Z,8.098145
2024-05-09T01:40:18.604Z,8.148499
2024-05-09T01:43:43.182Z,8.178711
2024-05-09T01:47:08.491Z,8.148499
2024-05-09T01:50:37.107Z,8.108215
2024-05-09T01:53:58.945Z,8.067932
2024-05-09T01:57:24.138Z,8.078003
2024-05-09T02:00:49.456Z,8.098145
2024-05-09T02:04:14.809Z,8.198853
2024-05-09T02:07:39.807Z,8.380127
2024-05-09T02:11:05.162Z,8.470764
2024-05-09T02:14:30.281Z,8.521118
2024-05-09T02:17:55.671Z,8.561401
2024-05-09T02:21:20.695Z,8.652039
2024-05-09T02:24:45.942Z,8.712463
2024-05-09T02:28:11.261Z,8.742676
2024-05-09T02:31:36.396Z,8.762817
2024-05-09T02:35:01.640Z,8.772888
2024-05-09T02:38:26.840Z,8.762817
2024-05-09T02:41:52.033Z,8.712463
2024-05-09T02:45:17.278Z,8.682251
2024-05-09T02:48:42.648Z,8.712463
2024-05-09T02:52:07.695Z,8.702393
2024-05-09T02:55:33.159Z,8.712463
2024-05-09T02:58:58.176Z,8.712463
2024-05-09T03:02:23.480Z,8.712463
2024-05-09T03:05:48.623Z,8.742676
2024-05-09T03:09:13.827Z,8.772888
2024-05-09T03:12:39.317Z,8.803101
2024-05-09T03:16:04.258Z,8.742676
2024-05-09T03:19:29.776Z,8.732605
2024-05-09T03:22:56.810Z,8.682251
2024-05-09T03:26:19.982Z,8.631897
2024-05-09T03:29:45.157Z,8.591614
2024-05-09T03:33:10.611Z,8.500977
2024-05-09T03:36:35.673Z,8.370056
2024-05-09T03:40:00.880Z,8.279419
2024-05-09T03:43:26.094Z,8.148499
2024-05-09T03:46:51.470Z,8.067932
2024-05-09T03:50:18.451Z,8.078003
2024-05-09T03:53:41.829Z,8.017578
2024-05-09T03:57:07.005Z,7.91687
2024-05-09T04:00:35.576Z,7.614746
2024-05-09T04:03:57.433Z,7.352905
2024-05-09T04:07:22.614Z,7.201843
2024-05-09T04:10:47.864Z,7.16156
2024-05-09T04:14:13.080Z,7.171631
2024-05-09T04:17:38.399Z,7.252197
2024-05-09T04:21:03.599Z,7.493896
2024-05-09T04:24:28.735Z,7.685242
2024-05-09T04:27:53.959Z,7.675171
2024-05-09T04:31:19.182Z,7.604675
2024-05-09T04:34:44.411Z,7.584534
2024-05-09T04:38:09.725Z,7.644958
2024-05-09T04:41:34.863Z,7.765808
2024-05-09T04:45:00.131Z,7.947083
2024-05-09T04:48:25.432Z,8.198853
2024-05-09T04:51:50.512Z,8.732605
2024-05-09T04:55:15.715Z,9.457703
2024-05-09T04:58:40.982Z,10.011597
2024-05-09T05:02:06.274Z,10.4245
2024-05-09T05:05:31.541Z,10.585632
2024-05-09T05:08:56.679Z,10.545349
2024-05-09T05:12:21.949Z,10.414429
2024-05-09T05:15:47.097Z,10.364075
2024-05-09T05:19:14.246Z,10.4245
2024-05-09T05:22:37.521Z,10.333862
2024-05-09T05:26:02.783Z,10.364075
2024-05-09T05:29:27.982Z,10.444641
2024-05-09T05:32:53.274Z,10.515137
2024-05-09T05:36:18.391Z,10.635986
2024-05-09T05:39:43.637Z,10.847473
2024-05-09T05:43:09.036Z,11.069031
2024-05-09T05:46:34.087Z,11.320801
2024-05-09T05:49:59.379Z,11.643066
2024-05-09T05:53:24.637Z,11.94519
2024-05-09T05:56:49.797Z,12.19696
2024-05-09T06:00:21.524Z,12.378235
2024-05-09T06:03:40.384Z,12.539368
2024-05-09T06:07:05.521Z,12.640076
2024-05-09T06:10:35.170Z,12.670288
2024-05-09T06:13:56.025Z,12.720642
2024-05-09T06:17:21.404Z,12.851562
2024-05-09T06:20:46.455Z,12.831421
2024-05-09T06:24:11.642Z,12.891846
2024-05-09T06:27:36.905Z,12.831421
2024-05-09T06:31:02.099Z,12.82135
2024-05-09T06:34:27.532Z,12.791138
2024-05-09T06:37:52.580Z,12.791138
2024-05-09T06:41:17.884Z,12.851562
2024-05-09T06:44:43.188Z,12.871704
2024-05-09T06:48:08.823Z,12.932129
2024-05-09T06:51:33.826Z,12.922058
2024-05-09T06:54:59.121Z,12.952271
2024-05-09T06:58:24.509Z,12.932129
2024-05-09T07:01:49.826Z,13.042908
2024-05-09T07:05:15.243Z,13.173828
2024-05-09T07:08:40.485Z,13.254395
2024-05-09T07:12:05.844Z,13.234253
2024-05-09T07:15:31.104Z,13.334961
2024-05-09T07:18:56.632Z,13.385315
2024-05-09T07:22:21.857Z,13.435669
2024-05-09T07:25:47.320Z,13.506165
2024-05-09T07:29:12.465Z,13.707581
2024-05-09T07:32:37.786Z,13.808289
2024-05-09T07:36:03.027Z,13.969421
2024-05-09T07:39:28.297Z,14.100342
2024-05-09T07:42:53.649Z,14.170837
2024-05-09T07:46:48.285Z,14.20105
2024-05-09T07:50:34.908Z,14.422607
2024-05-09T07:53:32.138Z,14.613953
2024-05-09T07:56:35.082Z,14.825439
2024-05-09T08:00:00.152Z,15.067139
2024-05-09T08:03:25.470Z,15.157776
2024-05-09T08:06:50.780Z,14.946289
2024-05-09T08:10:21.801Z,14.976501
2024-05-09T08:13:41.367Z,15.08728
2024-05-09T08:17:06.789Z,15.067139
2024-05-09T08:20:34.951Z,15.057068
2024-05-09T08:23:57.274Z,15.006714
2024-05-09T08:27:22.587Z,15.067139
2024-05-09T08:30:48.034Z,14.936218
2024-05-09T08:34:13.230Z,15.067139
2024-05-09T08:37:40.052Z,15.318909
2024-05-09T08:41:03.760Z,15.20813
2024-05-09T08:44:29.097Z,15.067139
2024-05-09T08:47:54.423Z,14.936218
2024-05-09T08:51:19.729Z,14.855652
2024-05-09T08:54:45.072Z,15.057068
2024-05-09T08:58:10.338Z,15.167847
2024-05-09T09:01:36.703Z,15.097351
2024-05-09T09:05:01.059Z,15.006714
2024-05-09T09:08:26.310Z,15.006714
2024-05-09T09:11:51.711Z,15.016785
2024-05-09T09:15:16.972Z,15.127563
2024-05-09T09:18:42.354Z,15.08728
2024-05-09T09:22:07.614Z,14.906006
2024-05-09T09:25:32.852Z,14.694519
2024-05-09T09:28:58.192Z,14.654236
2024-05-09T09:32:23.487Z,14.906006
2024-05-09T09:35:48.774Z,15.137634
2024-05-09T09:39:14.034Z,15.500183
2024-05-09T09:42:39.364Z,15.923157
2024-05-09T09:46:04.998Z,16.205139
2024-05-09T09:49:30.019Z,16.325989
2024-05-09T09:52:55.329Z,16.376343
2024-05-09T09:56:20.747Z,16.446838
2024-05-09T09:59:46.468Z,16.487122
2024-05-09T10:03:11.811Z,16.638184
2024-05-09T10:06:37.098Z,16.759033
2024-05-09T10:10:02.611Z,16.940308
2024-05-09T10:13:27.805Z,17.041016
2024-05-09T10:16:53.121Z,17.22229
2024-05-09T10:20:21.574Z,17.34314
2024-05-09T10:23:43.759Z,17.373352
2024-05-09T10:27:09.064Z,17.22229
2024-05-09T10:30:43.157Z,16.910095
2024-05-09T10:34:07.160Z,16.980591
2024-05-09T10:37:32.607Z,17.302856
2024-05-09T10:40:57.774Z,17.484131
2024-05-09T10:44:23.206Z,17.715759
2024-05-09T10:47:48.491Z,17.59491
2024-05-09T10:51:13.736Z,17.443848
2024-05-09T10:54:39.066Z,17.403564
2024-05-09T10:58:04.407Z,17.584839
2024-05-09T11:01:29.772Z,17.715759
2024-05-09T11:04:55.039Z,17.715759
2024-05-09T11:08:21.235Z,17.735901
2024-05-09T11:11:46.630Z,17.957458
2024-05-09T11:15:11.878Z,18.179016
2024-05-09T11:18:38.957Z,18.068237
2024-05-09T11:22:02.545Z,17.625122
2024-05-09T11:25:27.824Z,17.484131
2024-05-09T11:28:53.151Z,17.584839
2024-05-09T11:32:18.428Z,17.625122
2024-05-09T11:35:43.704Z,17.59491
2024-05-09T11:39:09.020Z,17.806396
2024-05-09T11:42:34.362Z,17.927246
2024-05-09T11:45:59.716Z,17.866821
2024-05-09T11:49:26.898Z,17.59491
2024-05-09T11:52:50.262Z,17.544556
2024-05-09T11:56:15.608Z,17.232361
2024-05-09T11:59:40.895Z,17.010803
2024-05-09T12:03:06.327Z,17.030945
2024-05-09T12:06:31.513Z,17.302856
2024-05-09T12:09:56.818Z,17.554626
2024-05-09T12:13:22.103Z,17.766113
2024-05-09T12:16:47.461Z,17.886963
2024-05-09T12:20:17.367Z,17.866821
2024-05-09T12:23:37.925Z,17.85675
2024-05-09T12:27:06.451Z,17.786255
2024-05-09T12:30:35.559Z,17.806396
2024-05-09T12:33:57.223Z,17.836609
2024-05-09T12:37:22.439Z,18.027954
2024-05-09T12:40:47.842Z,18.027954
2024-05-09T12:44:13.066Z,17.967529
2024-05-09T12:47:38.400Z,17.715759
2024-05-09T12:51:03.651Z,17.373352
2024-05-09T12:54:29.038Z,17.151794
2024-05-09T12:57:54.340Z,17.282715
2024-05-09T13:01:19.766Z,17.443848
2024-05-09T13:04:45.031Z,17.625122
2024-05-09T13:08:10.242Z,17.897034
2024-05-09T13:11:35.656Z,18.078308
2024-05-09T13:15:00.869Z,18.168945
2024-05-09T13:18:26.219Z,18.249512
2024-05-09T13:21:51.536Z,18.320007
2024-05-09T13:25:16.850Z,18.209229
2024-05-09T13:28:42.080Z,17.897034
2024-05-09T13:32:07.413Z,17.443848
2024-05-09T13:35:32.683Z,17.182007
2024-05-09T13:38:57.937Z,16.940308
2024-05-09T13:42:23.256Z,16.879883
2024-05-09T13:45:48.595Z,17.041016
2024-05-09T13:49:13.909Z,17.333069
2024-05-09T13:52:39.250Z,17.252502
2024-05-09T13:56:04.549Z,17.041016
2024-05-09T13:59:29.789Z,16.84967
2024-05-09T14:02:55.228Z,16.748962
2024-05-09T14:06:20.392Z,16.668396
2024-05-09T14:09:45.735Z,16.708679
2024-05-09T14:13:11.149Z,16.879883
2024-05-09T14:16:36.432Z,17.071228
2024-05-09T14:20:01.571Z,17.34314
2024-05-09T14:23:26.885Z,17.544556
2024-05-09T14:26:52.202Z,17.584839
2024-05-09T14:30:22.461Z,17.675476
2024-05-09T14:33:42.963Z,17.786255
2024-05-09T14:37:08.108Z,17.957458
2024-05-09T14:40:38.992Z,17.997742
2024-05-09T14:43:58.717Z,17.816467
2024-05-09T14:47:24.021Z,17.635193
2024-05-09T14:50:49.316Z,17.59491
2024-05-09T14:54:14.584Z,17.413635
2024-05-09T14:57:39.894Z,17.182007
2024-05-09T15:01:05.505Z,16.910095
2024-05-09T15:04:30.602Z,16.789246
2024-05-09T15:07:55.903Z,16.748962
2024-05-09T15:11:21.240Z,16.859741
2024-05-09T15:14:46.550Z,16.930237
2024-05-09T15:18:11.948Z,17.030945
2024-05-09T15:21:37.152Z,16.980591
2024-05-09T15:25:02.478Z,17.061157
2024-05-09T15:28:27.847Z,17.22229
2024-05-09T15:31:53.053Z,17.333069
2024-05-09T15:35:18.324Z,17.302856
2024-05-09T15:38:43.600Z,17.232361
2024-05-09T15:42:08.893Z,17.282715
2024-05-09T15:45:34.632Z,17.232361
2024-05-09T15:48:59.564Z,17.34314
2024-05-09T15:52:24.743Z,17.363281
2024-05-09T15:55:50.128Z,17.282715
2024-05-09T15:59:15.313Z,17.151794
2024-05-09T16:02:40.808Z,17.030945
2024-05-09T16:06:05.894Z,16.879883
2024-05-09T16:09:31.890Z,16.84967
2024-05-09T16:12:57.186Z,16.829529
2024-05-09T16:16:22.566Z,16.859741
2024-05-09T16:19:47.769Z,16.829529
2024-05-09T16:23:13.094Z,16.789246
2024-05-09T16:26:38.371Z,16.708679
2024-05-09T16:30:06.969Z,16.638184
2024-05-09T16:33:29.068Z,16.557617
2024-05-09T16:36:54.198Z,16.517334
2024-05-09T16:40:24.481Z,16.487122
2024-05-09T16:43:45.031Z,16.446838
2024-05-09T16:47:10.110Z,16.416626
2024-05-09T16:50:36.052Z,16.305847
2024-05-09T16:54:00.849Z,16.265564
2024-05-09T16:57:26.170Z,16.245422
2024-05-09T17:00:51.648Z,16.245422
2024-05-09T17:04:16.931Z,16.235352
2024-05-09T17:07:42.090Z,16.275635
2024-05-09T17:11:07.466Z,16.325989
2024-05-09T17:14:32.677Z,16.376343
2024-05-09T17:17:57.988Z,16.34613
2024-05-09T17:21:23.232Z,16.325989
2024-05-09T17:24:48.545Z,16.275635
2024-05-09T17:28:13.830Z,16.235352
2024-05-09T17:31:39.137Z,16.124573
2024-05-09T17:35:04.513Z,16.08429
2024-05-09T17:38:29.737Z,16.003723
2024-05-09T17:41:54.975Z,15.933228
2024-05-09T17:45:20.284Z,15.782166
2024-05-09T17:48:45.656Z,15.671387
2024-05-09T17:52:11.001Z,15.540466
2024-05-09T17:55:36.577Z,15.490112
2024-05-09T17:59:01.539Z,15.409546
2024-05-09T18:02:26.966Z,15.248413
2024-05-09T18:05:59.394Z,15.167847
2024-05-09T18:09:24.722Z,15.057068
2024-05-09T18:12:50.072Z,14.916077
2024-05-09T18:16:15.354Z,14.855652
2024-05-09T18:19:40.681Z,14.754944
2024-05-09T18:23:05.968Z,14.684448
2024-05-09T18:26:31.293Z,14.573669
2024-05-09T18:29:56.575Z,14.462891
2024-05-09T18:33:22.024Z,14.291687
2024-05-09T18:36:47.193Z,14.150696
2024-05-09T18:40:18.294Z,14.060059
2024-05-09T18:43:41.781Z,13.94928
2024-05-09T18:47:03.093Z,13.838501
2024-05-09T18:50:32.259Z,13.69751
2024-05-09T18:53:53.701Z,13.586731
2024-05-09T18:57:19.030Z,13.385315
2024-05-09T19:00:45.534Z,13.234253
2024-05-09T19:04:09.813Z,13.07312
2024-05-09T19:07:34.922Z,12.871704
2024-05-09T19:11:00.225Z,12.781067
2024-05-09T19:14:25.484Z,12.750854
2024-05-09T19:17:50.845Z,12.781067
2024-05-09T19:21:16.108Z,12.740784
2024-05-09T19:24:41.400Z,12.670288
2024-05-09T19:28:06.768Z,12.640076
2024-05-09T19:31:32.004Z,12.599792
2024-05-09T19:34:57.302Z,12.589722
2024-05-09T19:38:22.634Z,12.589722
2024-05-09T19:41:47.951Z,12.499084
2024-05-09T19:45:13.263Z,12.458801
2024-05-09T19:48:38.774Z,12.418518
2024-05-09T19:52:03.915Z,12.458801
2024-05-09T19:55:29.220Z,12.31781
2024-05-09T19:58:54.506Z,12.267456
2024-05-09T20:02:20.016Z,12.227173
2024-05-09T20:05:45.323Z,12.227173
2024-05-09T20:09:10.413Z,12.166748
2024-05-09T20:12:35.713Z,12.116394
2024-05-09T20:16:01.029Z,12.096252
2024-05-09T20:19:26.327Z,11.914978
2024-05-09T20:22:51.620Z,11.653137
2024-05-09T20:26:16.969Z,11.522217
2024-05-09T20:29:42.253Z,11.250305
2024-05-09T20:33:08.415Z,10.887756
2024-05-09T20:36:32.918Z,10.595703
2024-05-09T20:39:58.187Z,10.4245
2024-05-09T20:43:23.515Z,10.273438
2024-05-09T20:46:48.793Z,10.092163
2024-05-09T20:50:20.120Z,9.941101
2024-05-09T20:53:39.434Z,9.870605
2024-05-09T20:57:04.733Z,9.779968
2024-05-09T21:00:37.536Z,9.739685
2024-05-09T21:03:56.373Z,9.649048
2024-05-09T21:07:21.622Z,9.638977
2024-05-09T21:10:46.989Z,9.67926
2024-05-09T21:14:12.221Z,9.719543
2024-05-09T21:17:37.654Z,9.67926
2024-05-09T21:21:02.853Z,9.709473
2024-05-09T21:24:28.162Z,9.739685
2024-05-09T21:27:53.665Z,9.759827
2024-05-09T21:31:18.911Z,9.689331
2024-05-09T21:34:44.366Z,9.538269
2024-05-09T21:38:09.528Z,9.417419
2024-05-09T21:41:34.814Z,9.346924
2024-05-09T21:45:00.194Z,9.276428
2024-05-09T21:48:25.538Z,9.346924
2024-05-09T21:51:50.789Z,9.356995
2024-05-09T21:55:16.173Z,9.356995
2024-05-09T21:58:41.371Z,9.276428
2024-05-09T22:02:06.999Z,9.195862
2024-05-09T22:05:32.228Z,9.195862
2024-05-09T22:08:57.341Z,9.165649
2024-05-09T22:12:22.645Z,9.095154
2024-05-09T22:15:47.988Z,9.095154
2024-05-09T22:19:13.389Z,9.17572
2024-05-09T22:22:38.636Z,9.326782
2024-05-09T22:26:03.955Z,9.397278
2024-05-09T22:29:29.228Z,9.316711
2024-05-09T22:32:54.535Z,9.095154
2024-05-09T22:36:19.800Z,8.843384
2024-05-09T22:39:45.165Z,8.813171
2024-05-09T22:43:10.566Z,8.732605
2024-05-09T22:46:35.893Z,8.732605
2024-05-09T22:50:01.149Z,8.732605
2024-05-09T22:53:26.517Z,8.712463
2024-05-09T22:56:51.795Z,8.591614
2024-05-09T23:00:19.188Z,8.500977
2024-05-09T23:03:42.481Z,8.621826
2024-05-09T23:07:07.822Z,8.631897
2024-05-09T23:10:35.502Z,8.662109
2024-05-09T23:13:58.525Z,8.500977
2024-05-09T23:17:23.919Z,8.531189
2024-05-09T23:20:49.176Z,8.652039
2024-05-09T23:24:14.471Z,8.742676
2024-05-09T23:27:39.834Z,8.732605
2024-05-09T23:31:05.092Z,8.732605
2024-05-09T23:34:30.464Z,8.551331
2024-05-09T23:37:55.755Z,8.480835
2024-05-09T23:41:20.997Z,8.470764
2024-05-09T23:44:46.301Z,8.440552
2024-05-09T23:48:11.822Z,8.380127
2024-05-09T23:51:37.100Z,8.370056
2024-05-09T23:55:02.395Z,8.299561
2024-05-09T23:58:27.775Z,8.259277
